Thursday, July 30, 2015, 12:08 PM EDT

KDOV, Dover Air Force Base

Location: Dover, DE, United States Lat: 39.133
Local Time: 12:08 PM EDT (16:08 GMT) Lon: -75.467
Time Zone: US/Eastern Elev: 29 ft

Show me the last for .
Show Decoded

2015-07-30 10:58 METAR KDOV 301458Z AUTO 21012KT 10SM FEW023 30/24 A2991 RMK AO2 SLP131 T02970241
                 58002 VISNO RWY19 CHINO RWY19 $ =
2015-07-30 09:58 METAR KDOV 301358Z AUTO 20012KT 10SM CLR 28/25 A2991 =
2015-07-30 08:58 METAR KDOV 301258Z AUTO 20012KT 10SM BKN080 27/27 A2992 =
2015-07-30 07:58 METAR KDOV 301158Z AUTO 20007KT 10SM CLR 25/25 A2992 =
2015-07-30 06:58 METAR KDOV 301058Z AUTO 19008KT 10SM FEW080 24/24 A2992 =
2015-07-30 05:58 METAR KDOV 300958Z AUTO 18007KT 10SM SCT070 24/24 A2992 =
2015-07-30 04:58 METAR KDOV 300858Z AUTO 18006KT 10SM CLR 24/24 A2991 RMK AO2 SLP131 T02350235
                 57009 VISNO RWY19 CHINO RWY19 $ =
2015-07-30 03:58 METAR KDOV 300758Z AUTO 17006KT 10SM CLR 24/24 A2992 =
2015-07-30 02:58 METAR KDOV 300658Z AUTO 20007KT 10SM CLR 24/24 A2993 RMK AO2 SLP138 T02410241
                 VISNO RWY19 CHINO RWY19 $ =
2015-07-30 01:58 METAR KDOV 300558Z AUTO 19007KT 10SM CLR 24/24 A2994 =
2015-07-30 00:58 METAR KDOV 300458Z AUTO 19007KT 10SM CLR 24/24 A2995 =
2015-07-29 23:58 METAR KDOV 300358Z AUTO 19007KT 10SM CLR 25/24 A2995 =
2015-07-29 21:58 METAR KDOV 300158Z AUTO 19006KT 10SM FEW140 26/26 A2996 =
2015-07-29 21:18 METAR KDOV 300118Z AUTO 17005KT 10SM CLR 26/26 A2994 RMK AO2 =
2015-07-29 20:58 METAR KDOV 300058Z AUTO 17004KT 8SM R01/5500FT CLR 26/26 A2994 =
2015-07-29 19:58 METAR KDOV 292358Z AUTO 17004KT 10SM CLR 27/26 A2994 =
2015-07-29 18:58 METAR KDOV 292258Z AUTO 18006KT 10SM CLR 28/24 A2994 =
2015-07-29 17:58 METAR KDOV 292158Z AUTO 16009KT 10SM FEW035 27/24 A2995 RMK AO2 SLP145 T02720241
                 VISNO RWY19 CHINO RWY19 $ =
2015-07-29 16:58 METAR KDOV 292058Z AUTO 13011KT 10SM CLR 28/24 A2996 =
2015-07-29 15:58 METAR KDOV 291958Z AUTO 12007KT 10SM CLR 28/25 A2997 RMK AO2 SLP152 T02770247
                 VISNO RWY19 CHINO RWY19 $ =
2015-07-29 14:58 METAR KDOV 291858Z AUTO 10005KT 10SM SCT065 BKN080 BKN170 26/26 A2997 =
2015-07-29 14:51 METAR KDOV 291851Z AUTO 10005KT 10SM SCT065 BKN080 26/26 A2998 RMK AO2
                 RAE30DZB30E32RAB32E50DZB50E51 TSB35E50 VISNO RWY19 CHINO RWY19 $ =
2015-07-29 14:50 METAR KDOV 291850Z AUTO 10005KT 10SM -DZ SCT065 BKN080 26/26 A2998 RMK AO2
                 RAE30DZB30E32RAB32E50DZB50 TSB35E50 =
2015-07-29 14:35 METAR KDOV 291835Z AUTO 06004KT 10SM -TSRA FEW055 OVC080 26/26 A2998 RMK AO2 LTG
                 DSNT E-SE RAE30DZB30E32RAB32 TSB35 =
2015-07-29 14:18 METAR KDOV 291818Z AUTO 23002KT 3SM -RA BR BKN041 25/25 A2998 RMK AO2 VISNO
                 RWY19 CHINO RWY19 $ =
2015-07-29 14:13 METAR KDOV 291813Z AUTO 24005KT 1 3/4SM +RA BR OVC041 25/25 A2998 RMK AO2 VIS
                 3/4V1 3/4 VISNO RWY19 CHINO RWY19 $ =
2015-07-29 14:08 METAR KDOV 291808Z AUTO 25005KT 1SM R01/P6000FT +RA BR OVC034 24/24 A2999 RMK
                 AO2 VISNO RWY19 CHINO RWY19 $ =
2015-07-29 14:03 METAR KDOV 291803Z AUTO 25007KT 3/4SM R01/4000FT +RA BR BKN029 OVC038 24/24
                 A2999 RMK AO2 VIS 3/4V1 3/4 VISNO RWY19 CHINO RWY19 $ =
2015-07-29 13:58 METAR KDOV 291758Z AUTO 23016KT 1SM R01/P6000FT +RA BR BKN027 OVC036 24/24 A2999
                 RMK AO2 VIS 1V3 RAB28 TSB37E56 SLP159 P0008 60008 55005 VISNO RWY19 CHINO RWY19
                 $ =
2015-07-29 13:56 METAR KDOV 291756Z AUTO 23019KT 1 1/4SM +RA BR FEW023 BKN029 OVC038 24/24 A2999
                 RMK AO2 VIS 1 1/4V4 RAB28 TSB37E56 VISNO RWY19 CHINO RWY19 $ =
2015-07-29 13:52 METAR KDOV 291752Z AUTO 24016G24KT 2SM +TSRA BR BKN026 OVC035 24/24 A2999 RMK
                 AO2 VIS 2V6 RAB28 TSB37 CIG 026V034 VISNO RWY19 CHINO RWY19 $ =
2015-07-29 13:47 METAR KDOV 291747Z AUTO 25016G24KT 4SM TSRA BR FEW012 BKN030 OVC038 24/24 A2999
                 RMK AO2 RAB28 TSB37 VISNO RWY19 CHINO RWY19 $ =
2015-07-29 13:37 METAR KDOV 291737Z AUTO 26014G25KT 8SM -TSRA FEW023 SCT029 BKN034 BKN043 BKN090
                 26/24 A3000 RMK AO2 RAB28 TSB37 VISNO RWY19 CHINO RWY19 $ =
2015-07-29 13:28 METAR KDOV 291728Z AUTO 27015G20KT 10SM -RA VCTS FEW023 BKN030 BKN090 29/24
                 A2999 RMK AO2 RAB28 =
2015-07-29 12:58 METAR KDOV 291658Z AUTO 18008KT 10SM FEW034 31/24 A2999 =
2015-07-29 12:55 METAR KDOV 291655Z AUTO 17007KT 10SM FEW170 31/24 A2999 =
2015-07-29 12:47 METAR KDOV 291647Z AUTO 18007KT 10SM -RA FEW180 31/24 A2999 RMK AO2 RAB47 =

Support USWX by starting your Amazon purchase here.